sensor_id;sensor_type;location;lat;lon;timestamp;P1;durP1;ratioP1;P2;durP2;ratioP2
4980;SDS011;2507;50.392;7.482;2023-06-26T00:01:33;8.47;;;7.77;;
4980;SDS011;2507;50.392;7.482;2023-06-26T00:03:59;9.10;;;8.30;;
4980;SDS011;2507;50.392;7.482;2023-06-26T00:06:25;8.30;;;7.60;;
4980;SDS011;2507;50.392;7.482;2023-06-26T00:08:51;8.03;;;7.23;;
4980;SDS011;2507;50.392;7.482;2023-06-26T00:11:18;9.80;;;8.90;;
4980;SDS011;2507;50.392;7.482;2023-06-26T00:13:43;9.47;;;8.67;;
4980;SDS011;2507;50.392;7.482;2023-06-26T00:16:08;8.63;;;7.90;;
4980;SDS011;2507;50.392;7.482;2023-06-26T00:18:34;8.70;;;7.90;;
4980;SDS011;2507;50.392;7.482;2023-06-26T00:20:59;9.77;;;8.83;;
4980;SDS011;2507;50.392;7.482;2023-06-26T00:23:25;8.53;;;7.77;;
4980;SDS011;2507;50.392;7.482;2023-06-26T00:25:50;8.57;;;7.80;;
4980;SDS011;2507;50.392;7.482;2023-06-26T00:28:15;9.53;;;8.63;;
4980;SDS011;2507;50.392;7.482;2023-06-26T00:30:40;9.40;;;8.60;;
4980;SDS011;2507;50.392;7.482;2023-06-26T00:33:06;8.97;;;8.17;;
4980;SDS011;2507;50.392;7.482;2023-06-26T00:35:31;9.63;;;8.70;;
4980;SDS011;2507;50.392;7.482;2023-06-26T00:37:56;9.90;;;9.00;;
4980;SDS011;2507;50.392;7.482;2023-06-26T00:40:22;8.93;;;8.23;;
4980;SDS011;2507;50.392;7.482;2023-06-26T00:42:47;9.30;;;8.50;;
4980;SDS011;2507;50.392;7.482;2023-06-26T00:45:13;8.43;;;7.43;;
4980;SDS011;2507;50.392;7.482;2023-06-26T00:47:38;9.70;;;8.90;;
4980;SDS011;2507;50.392;7.482;2023-06-26T00:50:04;8.53;;;7.80;;
4980;SDS011;2507;50.392;7.482;2023-06-26T00:52:30;9.60;;;8.70;;
4980;SDS011;2507;50.392;7.482;2023-06-26T00:54:56;11.70;;;9.60;;
4980;SDS011;2507;50.392;7.482;2023-06-26T00:57:22;9.20;;;8.50;;
4980;SDS011;2507;50.392;7.482;2023-06-26T00:59:48;9.77;;;8.87;;
4980;SDS011;2507;50.392;7.482;2023-06-26T01:02:14;9.80;;;9.00;;
4980;SDS011;2507;50.392;7.482;2023-06-26T01:04:42;9.20;;;8.40;;
4980;SDS011;2507;50.392;7.482;2023-06-26T01:07:11;10.77;;;9.67;;
4980;SDS011;2507;50.392;7.482;2023-06-26T01:09:40;10.97;;;8.90;;
4980;SDS011;2507;50.392;7.482;2023-06-26T01:12:06;10.67;;;9.67;;
4980;SDS011;2507;50.392;7.482;2023-06-26T01:14:33;9.97;;;8.83;;
4980;SDS011;2507;50.392;7.482;2023-06-26T01:17:00;10.03;;;9.07;;
4980;SDS011;2507;50.392;7.482;2023-06-26T01:19:27;9.10;;;8.20;;
4980;SDS011;2507;50.392;7.482;2023-06-26T01:22:00;10.10;;;9.10;;
4980;SDS011;2507;50.392;7.482;2023-06-26T01:24:39;9.93;;;8.93;;
4980;SDS011;2507;50.392;7.482;2023-06-26T01:27:09;10.00;;;9.00;;
4980;SDS011;2507;50.392;7.482;2023-06-26T01:29:37;9.50;;;8.23;;
4980;SDS011;2507;50.392;7.482;2023-06-26T01:32:03;9.33;;;8.53;;
4980;SDS011;2507;50.392;7.482;2023-06-26T01:34:29;9.50;;;8.70;;
4980;SDS011;2507;50.392;7.482;2023-06-26T01:36:55;10.17;;;9.27;;
4980;SDS011;2507;50.392;7.482;2023-06-26T01:39:20;10.30;;;9.40;;
4980;SDS011;2507;50.392;7.482;2023-06-26T01:41:46;9.30;;;8.50;;
4980;SDS011;2507;50.392;7.482;2023-06-26T01:44:14;10.10;;;9.20;;
4980;SDS011;2507;50.392;7.482;2023-06-26T01:47:05;9.40;;;8.50;;
4980;SDS011;2507;50.392;7.482;2023-06-26T01:49:46;10.87;;;9.77;;
4980;SDS011;2507;50.392;7.482;2023-06-26T01:52:16;9.00;;;8.20;;
4980;SDS011;2507;50.392;7.482;2023-06-26T01:57:48;11.23;;;9.83;;
4980;SDS011;2507;50.392;7.482;2023-06-26T02:00:19;12.73;;;10.43;;
4980;SDS011;2507;50.392;7.482;2023-06-26T02:02:46;10.53;;;9.43;;
4980;SDS011;2507;50.392;7.482;2023-06-26T02:05:11;10.20;;;9.30;;
4980;SDS011;2507;50.392;7.482;2023-06-26T02:07:37;10.00;;;9.10;;
4980;SDS011;2507;50.392;7.482;2023-06-26T02:10:02;9.50;;;8.70;;
4980;SDS011;2507;50.392;7.482;2023-06-26T02:12:28;11.47;;;10.27;;
4980;SDS011;2507;50.392;7.482;2023-06-26T02:14:53;11.37;;;9.73;;
4980;SDS011;2507;50.392;7.482;2023-06-26T02:17:18;10.60;;;9.70;;
4980;SDS011;2507;50.392;7.482;2023-06-26T02:19:44;10.70;;;9.80;;
4980;SDS011;2507;50.392;7.482;2023-06-26T02:22:15;11.03;;;9.90;;
4980;SDS011;2507;50.392;7.482;2023-06-26T02:24:41;11.50;;;10.40;;
4980;SDS011;2507;50.392;7.482;2023-06-26T02:27:07;10.60;;;9.70;;
4980;SDS011;2507;50.392;7.482;2023-06-26T02:29:33;11.40;;;10.30;;
4980;SDS011;2507;50.392;7.482;2023-06-26T02:31:58;11.07;;;10.07;;
4980;SDS011;2507;50.392;7.482;2023-06-26T02:34:24;10.93;;;9.93;;
4980;SDS011;2507;50.392;7.482;2023-06-26T02:36:49;12.90;;;11.60;;
4980;SDS011;2507;50.392;7.482;2023-06-26T02:39:14;12.00;;;10.80;;
4980;SDS011;2507;50.392;7.482;2023-06-26T02:41:40;11.50;;;10.37;;
4980;SDS011;2507;50.392;7.482;2023-06-26T02:44:05;11.40;;;10.20;;
4980;SDS011;2507;50.392;7.482;2023-06-26T02:46:31;11.23;;;10.23;;
4980;SDS011;2507;50.392;7.482;2023-06-26T02:48:57;10.03;;;9.23;;
4980;SDS011;2507;50.392;7.482;2023-06-26T02:51:22;11.63;;;10.43;;
4980;SDS011;2507;50.392;7.482;2023-06-26T02:53:47;11.63;;;10.40;;
4980;SDS011;2507;50.392;7.482;2023-06-26T02:56:13;11.63;;;10.43;;
4980;SDS011;2507;50.392;7.482;2023-06-26T02:58:38;12.00;;;10.73;;
4980;SDS011;2507;50.392;7.482;2023-06-26T03:01:03;15.00;;;13.47;;
4980;SDS011;2507;50.392;7.482;2023-06-26T03:03:29;14.10;;;12.73;;
4980;SDS011;2507;50.392;7.482;2023-06-26T03:05:54;13.20;;;12.00;;
4980;SDS011;2507;50.392;7.482;2023-06-26T03:08:19;14.50;;;13.00;;
4980;SDS011;2507;50.392;7.482;2023-06-26T03:10:44;13.10;;;11.70;;
4980;SDS011;2507;50.392;7.482;2023-06-26T03:13:10;13.10;;;11.63;;
4980;SDS011;2507;50.392;7.482;2023-06-26T03:15:35;13.50;;;11.60;;
4980;SDS011;2507;50.392;7.482;2023-06-26T03:18:01;12.20;;;11.10;;
4980;SDS011;2507;50.392;7.482;2023-06-26T03:20:26;11.97;;;10.73;;
4980;SDS011;2507;50.392;7.482;2023-06-26T03:22:51;13.30;;;11.97;;
4980;SDS011;2507;50.392;7.482;2023-06-26T03:25:17;12.40;;;11.10;;
4980;SDS011;2507;50.392;7.482;2023-06-26T03:27:42;12.70;;;11.40;;
4980;SDS011;2507;50.392;7.482;2023-06-26T03:30:07;11.70;;;10.60;;
4980;SDS011;2507;50.392;7.482;2023-06-26T03:32:33;12.53;;;11.30;;
4980;SDS011;2507;50.392;7.482;2023-06-26T03:34:58;10.87;;;9.40;;
4980;SDS011;2507;50.392;7.482;2023-06-26T03:37:24;11.43;;;10.43;;
4980;SDS011;2507;50.392;7.482;2023-06-26T03:39:49;10.03;;;8.90;;
4980;SDS011;2507;50.392;7.482;2023-06-26T03:42:15;12.13;;;10.93;;
4980;SDS011;2507;50.392;7.482;2023-06-26T03:44:40;14.53;;;11.43;;
4980;SDS011;2507;50.392;7.482;2023-06-26T03:47:05;14.70;;;9.97;;
4980;SDS011;2507;50.392;7.482;2023-06-26T03:49:30;11.77;;;10.57;;
4980;SDS011;2507;50.392;7.482;2023-06-26T03:51:56;16.23;;;10.93;;
4980;SDS011;2507;50.392;7.482;2023-06-26T03:54:21;13.40;;;12.00;;
4980;SDS011;2507;50.392;7.482;2023-06-26T03:56:46;12.20;;;10.63;;
4980;SDS011;2507;50.392;7.482;2023-06-26T03:59:12;11.87;;;9.90;;
4980;SDS011;2507;50.392;7.482;2023-06-26T04:01:37;10.40;;;9.40;;
4980;SDS011;2507;50.392;7.482;2023-06-26T04:04:03;16.67;;;10.10;;
4980;SDS011;2507;50.392;7.482;2023-06-26T04:06:28;17.97;;;11.67;;
4980;SDS011;2507;50.392;7.482;2023-06-26T04:08:56;12.83;;;11.20;;
4980;SDS011;2507;50.392;7.482;2023-06-26T04:11:22;12.50;;;11.30;;
4980;SDS011;2507;50.392;7.482;2023-06-26T04:13:47;12.60;;;11.23;;
4980;SDS011;2507;50.392;7.482;2023-06-26T04:16:12;12.40;;;9.93;;
4980;SDS011;2507;50.392;7.482;2023-06-26T04:18:38;14.27;;;10.57;;
4980;SDS011;2507;50.392;7.482;2023-06-26T04:21:04;14.97;;;10.53;;
4980;SDS011;2507;50.392;7.482;2023-06-26T04:23:30;19.80;;;10.70;;
4980;SDS011;2507;50.392;7.482;2023-06-26T04:25:56;18.33;;;11.37;;
4980;SDS011;2507;50.392;7.482;2023-06-26T04:28:23;13.77;;;10.00;;
4980;SDS011;2507;50.392;7.482;2023-06-26T04:30:48;10.60;;;9.60;;
4980;SDS011;2507;50.392;7.482;2023-06-26T04:33:14;12.43;;;8.53;;
4980;SDS011;2507;50.392;7.482;2023-06-26T04:35:40;11.43;;;9.43;;
4980;SDS011;2507;50.392;7.482;2023-06-26T04:38:05;10.27;;;8.13;;
4980;SDS011;2507;50.392;7.482;2023-06-26T04:40:31;12.40;;;9.00;;
4980;SDS011;2507;50.392;7.482;2023-06-26T04:42:56;9.27;;;8.37;;
4980;SDS011;2507;50.392;7.482;2023-06-26T04:45:21;10.80;;;8.50;;
4980;SDS011;2507;50.392;7.482;2023-06-26T04:47:47;10.93;;;7.73;;
4980;SDS011;2507;50.392;7.482;2023-06-26T04:50:12;8.47;;;7.60;;
4980;SDS011;2507;50.392;7.482;2023-06-26T04:52:37;7.87;;;7.07;;
4980;SDS011;2507;50.392;7.482;2023-06-26T04:55:03;8.77;;;7.13;;
4980;SDS011;2507;50.392;7.482;2023-06-26T04:57:28;8.10;;;7.33;;
4980;SDS011;2507;50.392;7.482;2023-06-26T04:59:53;9.43;;;8.17;;
4980;SDS011;2507;50.392;7.482;2023-06-26T05:02:19;9.27;;;6.90;;
4980;SDS011;2507;50.392;7.482;2023-06-26T05:04:44;15.57;;;8.23;;
4980;SDS011;2507;50.392;7.482;2023-06-26T05:07:11;11.90;;;7.87;;
4980;SDS011;2507;50.392;7.482;2023-06-26T05:09:36;9.90;;;7.60;;
4980;SDS011;2507;50.392;7.482;2023-06-26T05:12:01;8.73;;;7.93;;
4980;SDS011;2507;50.392;7.482;2023-06-26T05:14:27;8.60;;;7.70;;
4980;SDS011;2507;50.392;7.482;2023-06-26T05:16:52;9.33;;;7.90;;
4980;SDS011;2507;50.392;7.482;2023-06-26T05:19:18;8.30;;;7.40;;
4980;SDS011;2507;50.392;7.482;2023-06-26T05:21:43;7.27;;;6.53;;
4980;SDS011;2507;50.392;7.482;2023-06-26T05:24:09;7.83;;;7.13;;
4980;SDS011;2507;50.392;7.482;2023-06-26T05:26:39;8.63;;;7.93;;
4980;SDS011;2507;50.392;7.482;2023-06-26T05:29:04;7.33;;;6.63;;
4980;SDS011;2507;50.392;7.482;2023-06-26T05:31:31;9.33;;;7.60;;
4980;SDS011;2507;50.392;7.482;2023-06-26T05:33:58;7.50;;;6.77;;
4980;SDS011;2507;50.392;7.482;2023-06-26T05:36:27;9.13;;;7.13;;
4980;SDS011;2507;50.392;7.482;2023-06-26T05:38:53;9.03;;;6.30;;
4980;SDS011;2507;50.392;7.482;2023-06-26T05:41:20;12.60;;;7.97;;
4980;SDS011;2507;50.392;7.482;2023-06-26T05:43:46;8.43;;;7.63;;
4980;SDS011;2507;50.392;7.482;2023-06-26T05:46:11;10.00;;;7.27;;
4980;SDS011;2507;50.392;7.482;2023-06-26T05:48:36;7.50;;;6.90;;
4980;SDS011;2507;50.392;7.482;2023-06-26T05:51:02;7.50;;;6.97;;
4980;SDS011;2507;50.392;7.482;2023-06-26T05:53:28;7.47;;;6.77;;
4980;SDS011;2507;50.392;7.482;2023-06-26T05:55:55;8.33;;;7.30;;
4980;SDS011;2507;50.392;7.482;2023-06-26T05:58:20;7.40;;;6.67;;
4980;SDS011;2507;50.392;7.482;2023-06-26T06:00:48;7.30;;;6.60;;
4980;SDS011;2507;50.392;7.482;2023-06-26T06:03:14;7.50;;;6.70;;
4980;SDS011;2507;50.392;7.482;2023-06-26T06:05:39;7.63;;;6.93;;
4980;SDS011;2507;50.392;7.482;2023-06-26T06:08:04;7.77;;;7.17;;
4980;SDS011;2507;50.392;7.482;2023-06-26T06:10:30;8.33;;;7.67;;
4980;SDS011;2507;50.392;7.482;2023-06-26T06:12:55;8.07;;;7.37;;
4980;SDS011;2507;50.392;7.482;2023-06-26T06:15:20;9.37;;;7.37;;
4980;SDS011;2507;50.392;7.482;2023-06-26T06:17:46;8.50;;;7.70;;
4980;SDS011;2507;50.392;7.482;2023-06-26T06:20:11;8.73;;;7.93;;
4980;SDS011;2507;50.392;7.482;2023-06-26T06:22:36;8.37;;;7.57;;
4980;SDS011;2507;50.392;7.482;2023-06-26T06:25:02;8.73;;;7.57;;
4980;SDS011;2507;50.392;7.482;2023-06-26T06:27:27;8.10;;;7.27;;
4980;SDS011;2507;50.392;7.482;2023-06-26T06:29:53;8.53;;;5.90;;
4980;SDS011;2507;50.392;7.482;2023-06-26T06:32:18;7.70;;;6.93;;
4980;SDS011;2507;50.392;7.482;2023-06-26T06:34:43;7.83;;;7.03;;
4980;SDS011;2507;50.392;7.482;2023-06-26T06:37:08;7.43;;;6.93;;
4980;SDS011;2507;50.392;7.482;2023-06-26T06:39:34;7.90;;;7.30;;
4980;SDS011;2507;50.392;7.482;2023-06-26T06:41:59;8.03;;;7.33;;
4980;SDS011;2507;50.392;7.482;2023-06-26T06:44:24;7.17;;;6.37;;
4980;SDS011;2507;50.392;7.482;2023-06-26T06:46:49;11.57;;;7.30;;
4980;SDS011;2507;50.392;7.482;2023-06-26T06:49:15;6.90;;;6.40;;
4980;SDS011;2507;50.392;7.482;2023-06-26T06:51:40;7.03;;;6.43;;
4980;SDS011;2507;50.392;7.482;2023-06-26T06:54:05;9.37;;;6.60;;
4980;SDS011;2507;50.392;7.482;2023-06-26T06:56:31;6.80;;;6.10;;
4980;SDS011;2507;50.392;7.482;2023-06-26T06:58:56;6.33;;;5.83;;
4980;SDS011;2507;50.392;7.482;2023-06-26T07:01:21;5.50;;;5.00;;
4980;SDS011;2507;50.392;7.482;2023-06-26T07:03:47;5.40;;;5.00;;
4980;SDS011;2507;50.392;7.482;2023-06-26T07:06:12;6.50;;;5.90;;
4980;SDS011;2507;50.392;7.482;2023-06-26T07:08:37;18.43;;;6.37;;
4980;SDS011;2507;50.392;7.482;2023-06-26T07:11:03;6.97;;;6.27;;
4980;SDS011;2507;50.392;7.482;2023-06-26T07:13:29;8.50;;;6.60;;
4980;SDS011;2507;50.392;7.482;2023-06-26T07:15:54;6.53;;;6.00;;
4980;SDS011;2507;50.392;7.482;2023-06-26T07:18:19;6.17;;;5.67;;
4980;SDS011;2507;50.392;7.482;2023-06-26T07:20:45;6.30;;;5.43;;
4980;SDS011;2507;50.392;7.482;2023-06-26T07:23:10;5.83;;;5.30;;
4980;SDS011;2507;50.392;7.482;2023-06-26T07:25:35;6.63;;;5.73;;
4980;SDS011;2507;50.392;7.482;2023-06-26T07:28:01;7.20;;;6.10;;
4980;SDS011;2507;50.392;7.482;2023-06-26T07:30:27;5.30;;;4.90;;
4980;SDS011;2507;50.392;7.482;2023-06-26T07:32:52;5.83;;;5.33;;
4980;SDS011;2507;50.392;7.482;2023-06-26T07:35:17;4.57;;;4.27;;
4980;SDS011;2507;50.392;7.482;2023-06-26T07:37:43;5.57;;;4.70;;
4980;SDS011;2507;50.392;7.482;2023-06-26T07:40:08;4.80;;;4.40;;
4980;SDS011;2507;50.392;7.482;2023-06-26T07:42:34;6.80;;;4.80;;
4980;SDS011;2507;50.392;7.482;2023-06-26T07:44:59;5.23;;;4.73;;
4980;SDS011;2507;50.392;7.482;2023-06-26T07:47:24;5.50;;;4.37;;
4980;SDS011;2507;50.392;7.482;2023-06-26T07:49:50;8.70;;;4.77;;
4980;SDS011;2507;50.392;7.482;2023-06-26T07:52:15;6.20;;;4.63;;
4980;SDS011;2507;50.392;7.482;2023-06-26T07:54:41;5.00;;;4.60;;
4980;SDS011;2507;50.392;7.482;2023-06-26T07:57:07;4.97;;;4.30;;
4980;SDS011;2507;50.392;7.482;2023-06-26T07:59:33;4.40;;;3.90;;
4980;SDS011;2507;50.392;7.482;2023-06-26T08:02:00;4.70;;;4.22;;
4980;SDS011;2507;50.392;7.482;2023-06-26T08:04:26;4.10;;;3.80;;
4980;SDS011;2507;50.392;7.482;2023-06-26T08:06:53;4.83;;;4.30;;
4980;SDS011;2507;50.392;7.482;2023-06-26T08:09:21;6.07;;;4.50;;
4980;SDS011;2507;50.392;7.482;2023-06-26T08:11:47;14.77;;;5.73;;
4980;SDS011;2507;50.392;7.482;2023-06-26T08:14:13;16.47;;;5.40;;
4980;SDS011;2507;50.392;7.482;2023-06-26T08:16:39;5.77;;;4.70;;
4980;SDS011;2507;50.392;7.482;2023-06-26T08:19:05;5.97;;;4.40;;
4980;SDS011;2507;50.392;7.482;2023-06-26T08:21:31;5.27;;;4.77;;
4980;SDS011;2507;50.392;7.482;2023-06-26T08:23:56;4.33;;;3.90;;
4980;SDS011;2507;50.392;7.482;2023-06-26T08:26:21;4.90;;;4.50;;
4980;SDS011;2507;50.392;7.482;2023-06-26T08:28:46;42.27;;;6.20;;
4980;SDS011;2507;50.392;7.482;2023-06-26T08:31:12;15.60;;;4.83;;
4980;SDS011;2507;50.392;7.482;2023-06-26T08:33:37;8.80;;;4.00;;
4980;SDS011;2507;50.392;7.482;2023-06-26T08:36:02;4.00;;;3.63;;
4980;SDS011;2507;50.392;7.482;2023-06-26T08:38:28;6.90;;;3.90;;
4980;SDS011;2507;50.392;7.482;2023-06-26T08:40:53;4.97;;;3.70;;
4980;SDS011;2507;50.392;7.482;2023-06-26T08:43:18;4.67;;;3.97;;
4980;SDS011;2507;50.392;7.482;2023-06-26T08:45:44;20.40;;;5.33;;
4980;SDS011;2507;50.392;7.482;2023-06-26T08:48:11;6.20;;;4.00;;
4980;SDS011;2507;50.392;7.482;2023-06-26T08:50:37;5.23;;;4.13;;
4980;SDS011;2507;50.392;7.482;2023-06-26T08:53:04;5.50;;;3.40;;
4980;SDS011;2507;50.392;7.482;2023-06-26T08:55:35;23.30;;;4.63;;
4980;SDS011;2507;50.392;7.482;2023-06-26T08:58:03;54.10;;;6.80;;
4980;SDS011;2507;50.392;7.482;2023-06-26T09:00:29;5.90;;;4.70;;
4980;SDS011;2507;50.392;7.482;2023-06-26T09:02:55;13.87;;;5.03;;
4980;SDS011;2507;50.392;7.482;2023-06-26T09:05:21;4.80;;;4.27;;
4980;SDS011;2507;50.392;7.482;2023-06-26T09:07:46;13.63;;;4.90;;
4980;SDS011;2507;50.392;7.482;2023-06-26T09:10:12;4.77;;;4.20;;
4980;SDS011;2507;50.392;7.482;2023-06-26T09:12:37;6.30;;;3.90;;
4980;SDS011;2507;50.392;7.482;2023-06-26T09:15:03;31.60;;;6.87;;
4980;SDS011;2507;50.392;7.482;2023-06-26T09:17:30;11.33;;;5.20;;
4980;SDS011;2507;50.392;7.482;2023-06-26T09:19:58;8.83;;;4.63;;
4980;SDS011;2507;50.392;7.482;2023-06-26T09:22:23;4.77;;;4.30;;
4980;SDS011;2507;50.392;7.482;2023-06-26T09:24:49;8.80;;;4.53;;
4980;SDS011;2507;50.392;7.482;2023-06-26T09:27:15;5.20;;;4.70;;
4980;SDS011;2507;50.392;7.482;2023-06-26T09:29:41;8.60;;;4.97;;
4980;SDS011;2507;50.392;7.482;2023-06-26T09:32:08;5.27;;;4.87;;
4980;SDS011;2507;50.392;7.482;2023-06-26T09:34:34;5.17;;;4.60;;
4980;SDS011;2507;50.392;7.482;2023-06-26T09:36:59;7.77;;;4.83;;
4980;SDS011;2507;50.392;7.482;2023-06-26T09:39:29;11.40;;;5.10;;
4980;SDS011;2507;50.392;7.482;2023-06-26T09:41:56;8.20;;;5.50;;
4980;SDS011;2507;50.392;7.482;2023-06-26T09:44:22;6.37;;;5.10;;
4980;SDS011;2507;50.392;7.482;2023-06-26T09:46:47;13.97;;;5.67;;
4980;SDS011;2507;50.392;7.482;2023-06-26T09:49:13;6.10;;;5.50;;
4980;SDS011;2507;50.392;7.482;2023-06-26T09:51:39;7.40;;;5.33;;
4980;SDS011;2507;50.392;7.482;2023-06-26T09:54:05;5.13;;;4.70;;
4980;SDS011;2507;50.392;7.482;2023-06-26T09:56:32;6.63;;;5.20;;
4980;SDS011;2507;50.392;7.482;2023-06-26T09:58:59;5.90;;;5.30;;
4980;SDS011;2507;50.392;7.482;2023-06-26T10:01:26;8.33;;;5.60;;
4980;SDS011;2507;50.392;7.482;2023-06-26T10:03:52;7.83;;;4.63;;
4980;SDS011;2507;50.392;7.482;2023-06-26T10:06:19;5.43;;;4.93;;
4980;SDS011;2507;50.392;7.482;2023-06-26T10:08:49;8.63;;;4.87;;
4980;SDS011;2507;50.392;7.482;2023-06-26T10:11:16;8.13;;;3.93;;
4980;SDS011;2507;50.392;7.482;2023-06-26T10:13:46;12.60;;;4.57;;
4980;SDS011;2507;50.392;7.482;2023-06-26T10:16:15;6.57;;;4.03;;
4980;SDS011;2507;50.392;7.482;2023-06-26T10:18:46;4.90;;;4.50;;
4980;SDS011;2507;50.392;7.482;2023-06-26T10:21:15;5.30;;;4.30;;
4980;SDS011;2507;50.392;7.482;2023-06-26T10:23:40;12.43;;;4.90;;
4980;SDS011;2507;50.392;7.482;2023-06-26T10:26:09;5.53;;;4.83;;
4980;SDS011;2507;50.392;7.482;2023-06-26T10:28:36;9.70;;;4.67;;
4980;SDS011;2507;50.392;7.482;2023-06-26T10:31:03;10.53;;;4.07;;
4980;SDS011;2507;50.392;7.482;2023-06-26T10:33:32;5.57;;;4.20;;
4980;SDS011;2507;50.392;7.482;2023-06-26T10:36:15;5.90;;;4.13;;
4980;SDS011;2507;50.392;7.482;2023-06-26T10:38:50;7.70;;;3.73;;
4980;SDS011;2507;50.392;7.482;2023-06-26T10:41:30;5.37;;;3.70;;
4980;SDS011;2507;50.392;7.482;2023-06-26T10:46:27;7.53;;;3.50;;
4980;SDS011;2507;50.392;7.482;2023-06-26T10:48:58;4.40;;;2.80;;
4980;SDS011;2507;50.392;7.482;2023-06-26T10:51:25;5.30;;;3.27;;
4980;SDS011;2507;50.392;7.482;2023-06-26T10:53:55;6.80;;;4.00;;
4980;SDS011;2507;50.392;7.482;2023-06-26T10:56:21;8.40;;;4.53;;
4980;SDS011;2507;50.392;7.482;2023-06-26T10:59:13;19.90;;;3.50;;
4980;SDS011;2507;50.392;7.482;2023-06-26T11:01:40;6.00;;;3.40;;
4980;SDS011;2507;50.392;7.482;2023-06-26T11:04:09;6.00;;;3.30;;
4980;SDS011;2507;50.392;7.482;2023-06-26T11:06:35;5.23;;;2.57;;
4980;SDS011;2507;50.392;7.482;2023-06-26T11:14:16;4.67;;;2.70;;
4980;SDS011;2507;50.392;7.482;2023-06-26T11:16:42;5.87;;;3.80;;
4980;SDS011;2507;50.392;7.482;2023-06-26T11:19:07;13.43;;;3.10;;
4980;SDS011;2507;50.392;7.482;2023-06-26T11:21:34;5.83;;;3.03;;
4980;SDS011;2507;50.392;7.482;2023-06-26T11:24:01;3.93;;;2.90;;
4980;SDS011;2507;50.392;7.482;2023-06-26T11:26:28;7.63;;;3.07;;
4980;SDS011;2507;50.392;7.482;2023-06-26T11:28:54;7.80;;;3.00;;
4980;SDS011;2507;50.392;7.482;2023-06-26T11:31:27;5.63;;;2.97;;
4980;SDS011;2507;50.392;7.482;2023-06-26T11:33:56;6.90;;;3.43;;
4980;SDS011;2507;50.392;7.482;2023-06-26T11:36:23;7.43;;;3.00;;
4980;SDS011;2507;50.392;7.482;2023-06-26T11:38:57;9.23;;;3.00;;
4980;SDS011;2507;50.392;7.482;2023-06-26T11:41:24;9.63;;;2.80;;
4980;SDS011;2507;50.392;7.482;2023-06-26T11:43:51;4.60;;;2.80;;
4980;SDS011;2507;50.392;7.482;2023-06-26T11:46:18;4.13;;;2.47;;
4980;SDS011;2507;50.392;7.482;2023-06-26T11:48:45;7.30;;;2.60;;
4980;SDS011;2507;50.392;7.482;2023-06-26T11:51:12;6.97;;;2.47;;
4980;SDS011;2507;50.392;7.482;2023-06-26T11:53:41;9.70;;;2.77;;
4980;SDS011;2507;50.392;7.482;2023-06-26T11:56:09;7.53;;;2.50;;
4980;SDS011;2507;50.392;7.482;2023-06-26T11:58:35;6.40;;;2.63;;
4980;SDS011;2507;50.392;7.482;2023-06-26T12:01:00;4.00;;;2.43;;
4980;SDS011;2507;50.392;7.482;2023-06-26T12:03:26;4.10;;;2.30;;
4980;SDS011;2507;50.392;7.482;2023-06-26T12:05:51;4.80;;;2.33;;
4980;SDS011;2507;50.392;7.482;2023-06-26T12:08:17;2.30;;;2.10;;
4980;SDS011;2507;50.392;7.482;2023-06-26T12:10:43;4.30;;;2.90;;
4980;SDS011;2507;50.392;7.482;2023-06-26T12:13:09;6.27;;;2.17;;
4980;SDS011;2507;50.392;7.482;2023-06-26T12:15:35;3.90;;;1.73;;
4980;SDS011;2507;50.392;7.482;2023-06-26T12:18:00;6.33;;;2.10;;
4980;SDS011;2507;50.392;7.482;2023-06-26T12:20:33;5.50;;;2.20;;
4980;SDS011;2507;50.392;7.482;2023-06-26T12:22:58;2.77;;;2.00;;
4980;SDS011;2507;50.392;7.482;2023-06-26T12:25:23;11.10;;;1.97;;
4980;SDS011;2507;50.392;7.482;2023-06-26T12:27:49;2.30;;;2.13;;
4980;SDS011;2507;50.392;7.482;2023-06-26T12:30:15;8.70;;;2.57;;
4980;SDS011;2507;50.392;7.482;2023-06-26T12:32:43;7.67;;;1.97;;
4980;SDS011;2507;50.392;7.482;2023-06-26T12:35:09;4.97;;;1.67;;
4980;SDS011;2507;50.392;7.482;2023-06-26T12:37:38;3.93;;;2.00;;
4980;SDS011;2507;50.392;7.482;2023-06-26T12:40:16;3.13;;;2.10;;
4980;SDS011;2507;50.392;7.482;2023-06-26T12:42:47;7.47;;;1.90;;
4980;SDS011;2507;50.392;7.482;2023-06-26T12:45:12;6.63;;;2.03;;
4980;SDS011;2507;50.392;7.482;2023-06-26T12:47:39;8.37;;;1.80;;
4980;SDS011;2507;50.392;7.482;2023-06-26T12:50:06;6.10;;;1.83;;
4980;SDS011;2507;50.392;7.482;2023-06-26T12:52:32;4.53;;;1.90;;
4980;SDS011;2507;50.392;7.482;2023-06-26T12:54:57;8.60;;;1.70;;
4980;SDS011;2507;50.392;7.482;2023-06-26T12:57:22;2.73;;;1.73;;
4980;SDS011;2507;50.392;7.482;2023-06-26T12:59:48;5.03;;;2.13;;
4980;SDS011;2507;50.392;7.482;2023-06-26T13:02:13;10.13;;;2.50;;
4980;SDS011;2507;50.392;7.482;2023-06-26T13:04:39;6.40;;;1.73;;
4980;SDS011;2507;50.392;7.482;2023-06-26T13:07:05;4.10;;;2.40;;
4980;SDS011;2507;50.392;7.482;2023-06-26T13:09:32;5.63;;;2.30;;
4980;SDS011;2507;50.392;7.482;2023-06-26T13:11:58;5.00;;;1.70;;
4980;SDS011;2507;50.392;7.482;2023-06-26T13:14:24;4.97;;;1.67;;
4980;SDS011;2507;50.392;7.482;2023-06-26T13:16:49;9.37;;;2.40;;
4980;SDS011;2507;50.392;7.482;2023-06-26T13:19:14;4.70;;;1.77;;
4980;SDS011;2507;50.392;7.482;2023-06-26T13:21:40;5.07;;;2.20;;
4980;SDS011;2507;50.392;7.482;2023-06-26T13:24:06;5.90;;;1.80;;
4980;SDS011;2507;50.392;7.482;2023-06-26T13:26:32;7.80;;;1.90;;
4980;SDS011;2507;50.392;7.482;2023-06-26T13:28:58;10.63;;;1.90;;
4980;SDS011;2507;50.392;7.482;2023-06-26T13:31:23;11.73;;;2.50;;
4980;SDS011;2507;50.392;7.482;2023-06-26T13:33:49;5.97;;;2.20;;
4980;SDS011;2507;50.392;7.482;2023-06-26T13:36:15;2.50;;;1.70;;
4980;SDS011;2507;50.392;7.482;2023-06-26T13:38:40;3.80;;;2.10;;
4980;SDS011;2507;50.392;7.482;2023-06-26T13:41:06;6.17;;;2.10;;
4980;SDS011;2507;50.392;7.482;2023-06-26T13:43:31;6.00;;;2.37;;
4980;SDS011;2507;50.392;7.482;2023-06-26T13:45:57;5.63;;;1.70;;
4980;SDS011;2507;50.392;7.482;2023-06-26T13:48:22;7.07;;;2.00;;
4980;SDS011;2507;50.392;7.482;2023-06-26T13:50:49;5.70;;;1.60;;
4980;SDS011;2507;50.392;7.482;2023-06-26T13:53:15;8.37;;;1.40;;
4980;SDS011;2507;50.392;7.482;2023-06-26T13:55:40;4.63;;;1.93;;
4980;SDS011;2507;50.392;7.482;2023-06-26T13:58:06;3.90;;;1.80;;
4980;SDS011;2507;50.392;7.482;2023-06-26T14:00:32;2.73;;;1.70;;
4980;SDS011;2507;50.392;7.482;2023-06-26T14:03:04;6.07;;;2.10;;
4980;SDS011;2507;50.392;7.482;2023-06-26T14:05:31;7.80;;;2.53;;
4980;SDS011;2507;50.392;7.482;2023-06-26T14:07:57;3.40;;;1.90;;
4980;SDS011;2507;50.392;7.482;2023-06-26T14:10:23;7.20;;;1.87;;
4980;SDS011;2507;50.392;7.482;2023-06-26T14:12:48;5.87;;;2.00;;
4980;SDS011;2507;50.392;7.482;2023-06-26T14:15:14;3.50;;;1.97;;
4980;SDS011;2507;50.392;7.482;2023-06-26T14:17:39;7.17;;;2.47;;
4980;SDS011;2507;50.392;7.482;2023-06-26T14:20:05;4.20;;;1.67;;
4980;SDS011;2507;50.392;7.482;2023-06-26T14:22:34;10.03;;;2.73;;
4980;SDS011;2507;50.392;7.482;2023-06-26T14:25:00;4.37;;;1.97;;
4980;SDS011;2507;50.392;7.482;2023-06-26T14:27:25;10.63;;;2.23;;
4980;SDS011;2507;50.392;7.482;2023-06-26T14:29:50;4.03;;;2.30;;
4980;SDS011;2507;50.392;7.482;2023-06-26T14:32:16;7.10;;;1.97;;
4980;SDS011;2507;50.392;7.482;2023-06-26T14:34:41;2.10;;;1.90;;
4980;SDS011;2507;50.392;7.482;2023-06-26T14:37:06;3.50;;;1.90;;
4980;SDS011;2507;50.392;7.482;2023-06-26T14:39:31;7.80;;;2.30;;
4980;SDS011;2507;50.392;7.482;2023-06-26T14:41:57;9.70;;;1.77;;
4980;SDS011;2507;50.392;7.482;2023-06-26T14:44:22;4.77;;;1.90;;
4980;SDS011;2507;50.392;7.482;2023-06-26T14:46:47;4.90;;;2.30;;
4980;SDS011;2507;50.392;7.482;2023-06-26T14:49:12;4.00;;;2.03;;
4980;SDS011;2507;50.392;7.482;2023-06-26T14:51:38;4.23;;;2.57;;
4980;SDS011;2507;50.392;7.482;2023-06-26T14:54:04;4.80;;;1.90;;
4980;SDS011;2507;50.392;7.482;2023-06-26T14:56:30;4.97;;;1.73;;
4980;SDS011;2507;50.392;7.482;2023-06-26T14:58:56;8.47;;;1.90;;
4980;SDS011;2507;50.392;7.482;2023-06-26T15:01:21;9.00;;;1.97;;
4980;SDS011;2507;50.392;7.482;2023-06-26T15:03:47;6.87;;;1.60;;
4980;SDS011;2507;50.392;7.482;2023-06-26T15:06:12;8.60;;;1.93;;
4980;SDS011;2507;50.392;7.482;2023-06-26T15:08:38;1.83;;;1.30;;
4980;SDS011;2507;50.392;7.482;2023-06-26T15:11:03;5.03;;;1.60;;
4980;SDS011;2507;50.392;7.482;2023-06-26T15:13:29;3.70;;;2.40;;
4980;SDS011;2507;50.392;7.482;2023-06-26T15:15:54;2.60;;;1.70;;